Time;durP1;ratioP1;P1;durP2;ratioP2;P2;SDS_P1;SDS_P2;PMS_P1;PMS_P2;Temp;Humidity;BMP_temperature;BMP_pressure;BME280_temperature;BME280_humidity;BME280_pressure;Samples;Min_cycle;Max_cycle;Signal;HPM_P1;HPM_P2
2023/09/07 00:04:10;;;;;;;4.95;4.45;;;14.90;99.90;;;15.89;92.20;98257.66;10351072;28;20698;-69
2023/09/07 00:09:15;;;;;;;6.20;5.18;;;14.90;99.90;;;15.79;92.39;98263.25;10350667;28;20222;-69
2023/09/07 00:14:19;;;;;;;6.28;5.43;;;14.90;99.90;;;15.60;93.66;98263.25;10353516;28;20260;-69
2023/09/07 00:19:23;;;;;;;6.00;5.45;;;14.70;99.90;;;15.63;93.13;98260.81;10351676;28;20307;-69
2023/09/07 00:24:27;;;;;;;6.22;5.30;;;14.60;99.90;;;15.57;93.13;98255.34;10351028;28;20318;-69
2023/09/07 00:29:30;;;;;;;6.07;5.15;;;14.60;99.90;;;15.46;93.86;98253.19;10352520;28;20226;-69
2023/09/07 00:34:35;;;;;;;5.90;5.40;;;14.60;99.90;;;15.40;94.19;98255.50;10350401;28;20802;-69
2023/09/07 00:39:38;;;;;;;5.40;4.93;;;14.50;99.90;;;15.40;93.88;98259.78;10351996;28;20589;-69
2023/09/07 00:44:41;;;;;;;6.13;5.60;;;14.50;99.90;;;15.42;93.22;98266.75;10352261;28;20246;-69
2023/09/07 00:49:46;;;;;;;6.35;5.10;;;14.50;99.90;;;15.32;93.13;98262.88;10347207;28;20266;-69
2023/09/07 00:54:50;;;;;;;6.00;5.50;;;14.40;99.90;;;15.20;93.86;98264.91;10349481;28;20238;-69
2023/09/07 00:59:54;;;;;;;6.15;5.60;;;14.30;99.90;;;15.22;93.80;98278.75;10348655;28;20280;-69
2023/09/07 01:04:59;;;;;;;6.10;5.50;;;14.30;99.90;;;15.24;94.45;98276.22;10350544;28;20310;-69
2023/09/07 01:10:04;;;;;;;6.68;5.95;;;14.40;99.90;;;15.23;94.76;98274.47;10347557;28;20306;-71
2023/09/07 01:15:10;;;;;;;5.82;5.32;;;14.30;99.90;;;15.12;94.16;98266.25;10349740;28;20416;-69
2023/09/07 01:20:18;;;;;;;6.15;5.68;;;14.20;99.90;;;15.11;94.07;98267.09;10350522;28;20222;-69
2023/09/07 01:25:23;;;;;;;6.55;6.00;;;14.10;99.90;;;15.05;94.78;98269.34;10350090;28;20225;-69
2023/09/07 01:30:28;;;;;;;6.30;5.70;;;14.10;99.90;;;15.05;95.97;98266.78;10349953;28;20606;-69
2023/09/07 01:35:34;;;;;;;6.93;6.22;;;14.20;99.90;;;15.10;95.96;98268.75;10349169;28;20331;-72
2023/09/07 01:40:39;;;;;;;7.35;5.70;;;14.30;99.90;;;15.16;95.83;98264.69;10347915;28;20717;-69
2023/09/07 01:45:42;;;;;;;6.15;5.57;;;14.30;99.90;;;15.13;94.56;98260.28;10353540;28;20285;-69
2023/09/07 01:50:45;;;;;;;6.35;5.75;;;14.20;99.90;;;15.11;94.76;98259.34;10347628;28;20710;-71
2023/09/07 01:55:50;;;;;;;5.38;4.88;;;14.20;99.90;;;14.96;94.66;98268.94;10345828;28;20238;-71
2023/09/07 02:00:57;;;;;;;6.05;5.53;;;14.10;99.90;;;14.95;95.55;98264.59;10350861;28;20294;-70
2023/09/07 02:06:01;;;;;;;6.25;5.72;;;14.10;99.90;;;14.92;95.24;98267.91;10346124;28;20241;-70
2023/09/07 02:11:06;;;;;;;6.90;6.40;;;14.00;99.90;;;14.87;95.93;98265.13;10350582;28;20214;-70
2023/09/07 02:16:10;;;;;;;6.00;5.50;;;14.00;99.90;;;14.80;95.75;98257.94;10348481;28;20230;-71
2023/09/07 02:21:13;;;;;;;6.57;5.97;;;13.90;99.90;;;14.77;96.29;98257.78;10347968;28;20229;-71
2023/09/07 02:26:18;;;;;;;6.32;5.72;;;13.90;99.90;;;14.85;95.61;98255.56;10345789;28;20768;-70
2023/09/07 02:31:22;;;;;;;6.68;6.07;;;13.90;99.90;;;14.77;96.61;98257.78;10348357;28;20230;-70
2023/09/07 02:36:25;;;;;;;6.72;6.15;;;13.90;99.90;;;14.73;97.09;98252.41;10344209;28;20625;-70
2023/09/07 02:41:30;;;;;;;6.60;6.10;;;13.90;99.90;;;14.73;96.28;98268.72;10352580;28;20317;-70
2023/09/07 02:46:33;;;;;;;6.70;6.10;;;13.80;99.90;;;14.71;95.65;98269.47;10346686;28;20605;-70
2023/09/07 02:51:36;;;;;;;6.75;6.15;;;13.80;99.90;;;14.59;96.02;98259.47;10347639;28;20229;-71
2023/09/07 02:56:41;;;;;;;5.88;5.38;;;13.70;99.90;;;14.54;96.74;98255.81;10346142;28;20856;-71
2023/09/07 03:01:45;;;;;;;6.68;5.68;;;13.60;99.90;;;14.50;95.55;98256.44;10347312;28;20310;-71
2023/09/07 03:06:48;;;;;;;5.47;5.07;;;13.60;99.90;;;14.50;95.31;98251.28;10345514;28;20241;-71
2023/09/07 03:11:53;;;;;;;6.78;5.55;;;13.60;99.90;;;14.40;94.05;98256.00;10347046;28;20649;-69
2023/09/07 03:16:56;;;;;;;5.97;5.47;;;13.40;99.90;;;14.28;95.26;98254.50;10346590;28;20600;-69
2023/09/07 03:21:59;;;;;;;7.13;6.43;;;13.30;99.90;;;14.15;95.77;98255.59;10348032;28;20726;-69
2023/09/07 03:27:05;;;;;;;7.20;6.53;;;13.30;99.90;;;14.09;96.62;98253.63;10343406;28;20281;-69
2023/09/07 03:32:09;;;;;;;7.47;6.75;;;13.30;99.90;;;14.12;98.69;98256.34;10348355;28;20250;-70
2023/09/07 03:37:12;;;;;;;6.32;5.80;;;13.30;99.90;;;14.15;96.61;98253.03;10344165;28;20316;-69
2023/09/07 03:42:17;;;;;;;6.90;6.30;;;13.20;99.90;;;14.01;97.18;98251.47;10344860;28;20240;-69
2023/09/07 03:47:20;;;;;;;6.97;6.28;;;13.10;99.90;;;14.00;98.27;98255.75;10346366;28;21079;-69
2023/09/07 03:52:24;;;;;;;7.70;7.10;;;13.20;99.90;;;14.14;98.88;98256.44;10344090;28;20405;-69
2023/09/07 03:57:29;;;;;;;7.32;6.38;;;13.30;99.90;;;14.15;99.65;98250.47;10349118;28;20722;-71
2023/09/07 04:02:32;;;;;;;8.18;7.43;;;13.40;99.90;;;14.12;100.00;98243.47;10341494;28;20238;-71
2023/09/07 04:07:36;;;;;;;6.90;6.28;;;13.40;99.90;;;14.14;99.63;98246.16;10349143;28;20218;-69
2023/09/07 04:12:40;;;;;;;7.07;6.40;;;13.30;99.90;;;14.06;100.00;98248.31;10343178;28;20250;-69
2023/09/07 04:17:44;;;;;;;7.45;6.75;;;13.20;99.90;;;14.07;98.24;98251.78;10346283;28;20231;-69
2023/09/07 04:22:47;;;;;;;7.43;6.38;;;13.20;99.90;;;14.06;97.89;98250.91;10342065;28;20350;-69
2023/09/07 04:27:52;;;;;;;6.85;6.25;;;13.20;99.90;;;13.96;97.59;98252.13;10344241;28;20230;-69
2023/09/07 04:32:55;;;;;;;6.80;6.10;;;13.10;99.90;;;13.90;97.74;98250.94;10340728;28;20820;-69
2023/09/07 04:37:59;;;;;;;6.25;5.85;;;13.00;99.90;;;13.84;97.00;98251.50;10345928;28;20266;-69
2023/09/07 04:43:04;;;;;;;7.43;6.72;;;12.80;99.90;;;13.79;97.73;98242.66;10366615;28;20226;-68
2023/09/07 04:48:07;;;;;;;6.75;5.70;;;12.90;99.90;;;13.75;97.98;98251.03;10352220;28;20241;-68
2023/09/07 04:53:10;;;;;;;6.63;6.13;;;12.90;99.90;;;13.66;100.00;98250.59;10352468;28;20242;-69
2023/09/07 04:58:15;;;;;;;6.32;5.82;;;12.90;99.90;;;13.64;99.63;98257.31;10357089;28;20665;-68
2023/09/07 05:03:18;;;;;;;7.50;6.80;;;12.80;99.90;;;13.76;99.83;98257.94;10363639;28;20588;-68
2023/09/07 05:08:22;;;;;;;7.45;6.75;;;12.90;99.90;;;13.75;99.35;98261.31;10363175;28;20246;-68
2023/09/07 05:13:28;;;;;;;7.55;6.78;;;12.90;99.90;;;13.78;100.00;98261.47;10357519;28;20241;-68
2023/09/07 05:18:31;;;;;;;7.82;7.13;;;13.00;99.90;;;13.87;100.00;98266.19;10349603;28;20222;-68
2023/09/07 05:23:35;;;;;;;7.88;7.15;;;13.00;99.90;;;13.87;99.89;98263.63;10353925;28;20242;-68
2023/09/07 05:28:42;;;;;;;7.68;6.75;;;13.10;99.90;;;13.98;98.86;98272.75;10357219;28;20227;-68
2023/09/07 05:33:45;;;;;;;7.05;6.45;;;13.20;99.90;;;14.11;98.08;98280.28;10354422;28;20250;-68
2023/09/07 05:38:48;;;;;;;7.68;7.03;;;13.30;99.90;;;14.22;99.07;98280.81;10355670;28;20313;-69
2023/09/07 05:43:53;;;;;;;6.95;6.35;;;13.40;99.90;;;14.88;96.03;98278.91;10364819;28;20633;-69
2023/09/07 05:48:57;;;;;;;6.82;6.22;;;13.80;99.90;;;15.77;91.83;98286.38;10355467;28;20654;-69
2023/09/07 05:54:00;;;;;;;7.10;6.20;;;14.40;99.90;;;16.49;87.71;98285.94;10359807;28;20778;-68
2023/09/07 05:59:05;;;;;;;7.32;6.32;;;15.00;99.90;;;17.25;83.10;98279.44;10357580;28;20337;-69
2023/09/07 06:04:08;;;;;;;7.15;6.45;;;15.70;99.90;;;17.78;79.78;98283.16;10353842;28;20234;-69
2023/09/07 06:09:12;;;;;;;6.93;6.10;;;16.10;99.90;;;18.13;78.01;98283.50;10360810;28;20231;-69
2023/09/07 06:14:16;;;;;;;6.80;6.00;;;16.70;99.90;;;18.44;77.75;98268.16;10355244;28;20261;-70
2023/09/07 06:19:19;;;;;;;7.15;6.45;;;17.10;99.90;;;18.39;78.08;98269.72;10360977;28;20309;-71
2023/09/07 06:24:23;;;;;;;6.88;6.28;;;17.40;99.90;;;19.13;75.71;98275.53;10362562;28;20243;-70
2023/09/07 06:29:27;;;;;;;6.90;6.40;;;17.80;99.90;;;20.25;70.31;98268.28;10365905;28;20351;-70
2023/09/07 06:34:31;;;;;;;6.60;6.00;;;18.60;99.90;;;21.03;66.81;98264.13;10354911;28;20232;-69
2023/09/07 06:39:34;;;;;;;6.57;6.07;;;19.10;99.90;;;21.58;63.53;98265.31;10358135;28;20300;-71
2023/09/07 06:44:39;;;;;;;6.20;5.65;;;19.70;99.90;;;22.18;61.91;98263.84;10357531;28;20246;-70
2023/09/07 06:49:42;;;;;;;10.32;9.38;;;20.20;99.90;;;22.48;60.29;98266.09;10353596;28;20682;-69
2023/09/07 06:54:45;;;;;;;6.70;6.10;;;20.70;99.90;;;22.97;58.47;98273.81;10351543;28;20795;-70
2023/09/07 06:59:49;;;;;;;6.95;6.07;;;21.20;99.90;;;23.43;57.89;98270.97;10351083;28;20305;-70
2023/09/07 07:04:53;;;;;;;7.22;6.50;;;21.50;99.90;;;23.55;55.85;98278.94;10355663;28;20285;-70
2023/09/07 07:09:56;;;;;;;6.70;6.00;;;21.40;99.90;;;24.24;53.29;98271.91;10352265;28;20230;-70
2023/09/07 07:15:00;;;;;;;6.95;6.35;;;21.70;99.90;;;24.79;53.40;98276.75;10347961;28;20372;-71
2023/09/07 07:20:05;;;;;;;7.47;5.90;;;22.10;99.90;;;24.63;53.58;98270.50;10352141;28;20225;-70
2023/09/07 07:25:10;;;;;;;6.43;5.80;;;22.20;99.90;;;24.20;53.92;98270.97;10348437;28;20234;-70
2023/09/07 07:30:15;;;;;;;6.78;6.18;;;22.60;99.90;;;24.26;54.95;98271.03;10348017;28;20250;-69
2023/09/07 07:35:18;;;;;;;6.35;5.63;;;22.70;99.90;;;24.88;53.38;98261.09;10352710;28;20596;-70
2023/09/07 07:40:21;;;;;;;6.55;5.95;;;23.50;99.90;;;24.83;52.44;98268.03;10343766;28;20317;-70
2023/09/07 07:45:26;;;;;;;5.88;5.38;;;23.70;99.90;;;24.95;53.12;98260.28;10350953;28;20736;-68
2023/09/07 07:50:29;;;;;;;6.50;6.00;;;23.90;99.90;;;25.15;52.97;98260.41;10354516;28;20226;-70
2023/09/07 07:55:38;;;;;;;6.38;5.88;;;24.10;99.90;;;25.45;51.86;98257.09;10349119;28;20229;-67
2023/09/07 08:00:47;;;;;;;5.95;5.45;;;24.40;99.60;;;25.93;51.02;98254.66;10352247;28;20229;-68
2023/09/07 08:05:50;;;;;;;6.28;5.78;;;25.10;98.50;;;26.23;50.19;98259.06;10345395;28;20256;-68
2023/09/07 08:10:53;;;;;;;6.40;5.93;;;25.40;97.80;;;26.28;49.59;98254.72;10349354;28;20851;-66
2023/09/07 08:15:58;;;;;;;6.38;5.80;;;25.60;96.70;;;26.45;49.66;98249.47;10350625;28;20226;-66
2023/09/07 08:21:02;;;;;;;6.18;5.57;;;25.70;96.90;;;26.73;48.41;98247.75;10359754;28;20217;-66
2023/09/07 08:26:05;;;;;;;6.00;5.35;;;26.20;95.50;;;26.39;49.88;98242.47;10358944;28;20256;-70
2023/09/07 08:31:10;;;;;;;6.70;6.10;;;25.50;97.10;;;26.76;49.04;98242.50;10350430;28;20681;-70
2023/09/07 08:36:16;;;;;;;6.00;5.43;;;26.00;96.00;;;26.71;49.34;98244.25;10351187;28;20217;-70
2023/09/07 08:41:22;;;;;;;5.90;5.50;;;26.00;96.00;;;27.09;48.67;98241.53;10353204;28;20229;-67
2023/09/07 08:46:27;;;;;;;6.25;5.05;;;26.50;95.50;;;27.00;48.98;98230.19;10351986;28;20244;-69
2023/09/07 08:51:31;;;;;;;5.68;5.18;;;26.50;95.60;;;27.58;48.36;98237.88;10353073;28;20248;-68
2023/09/07 08:56:35;;;;;;;5.68;5.28;;;27.00;95.10;;;27.50;47.97;98242.28;10342785;28;20706;-68
2023/09/07 09:01:40;;;;;;;5.20;4.80;;;26.70;94.90;;;27.96;45.88;98232.47;10349038;28;20245;-69
2023/09/07 09:06:44;;;;;;;5.88;5.40;;;27.40;93.50;;;28.13;45.70;98234.09;10347097;28;20919;-70
2023/09/07 09:11:47;;;;;;;6.00;5.45;;;27.60;93.30;;;28.21;45.79;98234.91;10365298;22;20309;-71
2023/09/07 09:16:52;;;;;;;5.75;5.15;;;27.70;93.00;;;28.37;45.10;98235.69;10335636;28;20864;-71
2023/09/07 09:21:57;;;;;;;6.00;5.40;;;28.00;92.60;;;28.42;44.17;98236.56;10328778;28;20242;-70
2023/09/07 09:27:00;;;;;;;5.72;5.30;;;27.90;92.00;;;28.10;46.71;98235.00;10296199;28;20734;-69
2023/09/07 09:32:07;;;;;;;5.65;5.20;;;27.50;93.70;;;28.01;46.22;98219.28;10311182;28;20309;-71
2023/09/07 09:37:15;;;;;;;5.75;5.30;;;27.40;93.10;;;28.23;46.14;98218.25;10317844;28;20226;-73
2023/09/07 09:42:19;;;;;;;5.78;5.32;;;27.70;92.60;;;28.60;44.72;98212.69;10304977;28;20298;-71
2023/09/07 09:47:24;;;;;;;5.43;5.03;;;28.10;92.00;;;28.76;43.91;98208.19;10300480;28;20651;-72
2023/09/07 09:52:28;;;;;;;5.10;4.70;;;28.10;91.70;;;28.91;43.74;98204.50;10303666;28;20234;-74
2023/09/07 09:57:31;;;;;;;5.72;5.25;;;28.40;91.60;;;28.65;44.82;98213.53;10302743;28;20836;-73
2023/09/07 10:02:40;;;;;;;5.88;5.18;;;28.10;91.80;;;28.71;43.79;98208.22;10320326;28;20353;-73
2023/09/07 10:07:44;;;;;;;5.70;5.20;;;28.30;91.00;;;28.69;44.14;98207.34;10312803;28;20222;-74
2023/09/07 10:12:54;;;;;;;5.32;4.93;;;28.20;91.60;;;28.99;44.09;98197.41;10323196;28;20226;-73
2023/09/07 10:18:13;;;;;;;5.22;4.82;;;28.50;91.30;;;28.79;44.39;98201.97;10315976;28;20334;-72
2023/09/07 10:23:16;;;;;;;4.85;4.55;;;28.20;91.30;;;28.56;44.46;98203.09;10313861;28;20226;-69
2023/09/07 10:28:25;;;;;;;5.30;4.90;;;28.00;91.50;;;28.90;44.08;98186.94;10311984;28;20233;-71
2023/09/07 10:33:29;;;;;;;7.55;5.40;;;28.40;91.20;;;29.13;44.06;98190.25;10312939;28;20258;-71
2023/09/07 10:38:33;;;;;;;6.90;5.25;;;28.40;91.40;;;28.71;44.78;98188.94;10311957;28;20246;-70
2023/09/07 10:43:48;;;;;;;4.70;4.40;;;28.10;91.70;;;28.61;44.35;98188.13;10302892;28;20234;-70
2023/09/07 10:48:56;;;;;;;5.35;4.95;;;27.90;91.70;;;28.77;45.58;98174.81;10298708;28;20257;-70
2023/09/07 10:53:59;;;;;;;5.18;4.78;;;28.20;92.50;;;28.79;45.62;98175.66;10300056;28;20605;-71
2023/09/07 10:59:03;;;;;;;5.30;4.85;;;28.30;92.30;;;29.01;45.37;98176.31;10301243;28;20258;-70
2023/09/07 11:04:10;;;;;;;5.57;5.18;;;28.30;92.40;;;28.93;44.46;98169.38;10298102;28;20905;-70
2023/09/07 11:09:16;;;;;;;5.25;4.85;;;28.20;91.60;;;28.76;44.47;98173.97;10298865;28;20258;-69
2023/09/07 11:14:23;;;;;;;5.15;4.70;;;28.20;91.60;;;28.62;45.08;98165.34;10308140;28;20234;-69
2023/09/07 11:19:28;;;;;;;5.40;4.93;;;28.00;92.00;;;28.50;46.72;98156.69;10316441;28;20242;-69
2023/09/07 11:24:31;;;;;;;5.32;4.85;;;27.90;92.60;;;28.70;46.32;98159.13;10317689;28;20230;-68
2023/09/07 11:29:35;;;;;;;5.50;5.10;;;28.00;92.60;;;28.85;45.80;98154.56;10318410;28;20226;-69
2023/09/07 11:34:50;;;;;;;5.35;4.95;;;28.20;92.40;;;28.77;45.51;98149.38;10302861;28;20242;-71
2023/09/07 11:39:53;;;;;;;5.30;4.90;;;28.20;92.00;;;28.79;44.80;98144.97;10298718;28;20229;-70
2023/09/07 11:44:57;;;;;;;5.32;4.82;;;28.20;91.60;;;28.57;45.50;98152.22;10301220;28;20230;-70
2023/09/07 11:50:02;;;;;;;5.55;5.15;;;28.00;91.80;;;29.04;43.44;98149.97;10295661;28;21669;-70
2023/09/07 11:55:06;;;;;;;4.70;4.40;;;28.60;90.80;;;28.73;45.43;98142.38;10304642;28;20368;-69
2023/09/07 12:00:10;;;;;;;4.97;4.68;;;28.20;91.90;;;28.49;45.02;98130.38;10305618;28;20291;-69
2023/09/07 12:05:15;;;;;;;5.32;4.82;;;27.80;91.50;;;28.80;44.68;98137.94;10310888;28;20237;-69
2023/09/07 12:10:18;;;;;;;5.95;5.45;;;28.10;91.60;;;28.29;46.18;98133.19;10307025;28;20226;-70
2023/09/07 12:15:22;;;;;;;5.82;5.35;;;27.80;92.20;;;28.32;47.59;98127.88;10303918;28;20237;-69
2023/09/07 12:20:26;;;;;;;5.40;5.00;;;27.80;92.90;;;28.30;47.08;98120.03;10310946;28;20698;-68
2023/09/07 12:25:30;;;;;;;5.85;5.35;;;27.80;92.90;;;28.39;46.40;98120.81;10308354;28;20226;-70
2023/09/07 12:30:33;;;;;;;5.80;5.28;;;27.80;92.20;;;28.30;46.93;98117.41;10309924;28;20535;-69
2023/09/07 12:35:38;;;;;;;5.60;5.20;;;27.80;92.40;;;28.22;46.92;98129.75;10302551;28;20415;-67
2023/09/07 12:40:41;;;;;;;5.80;5.40;;;27.80;92.40;;;28.13;45.90;98114.06;10306760;28;21148;-69
2023/09/07 12:45:46;;;;;;;5.53;5.13;;;27.70;91.90;;;28.27;46.11;98114.81;10304808;28;20332;-69
2023/09/07 12:50:50;;;;;;;5.22;4.82;;;27.80;92.30;;;28.45;45.55;98119.03;10305531;28;20233;-70
2023/09/07 12:55:54;;;;;;;5.72;5.30;;;27.90;91.80;;;28.33;45.88;98112.97;10303752;28;20253;-71
2023/09/07 13:00:58;;;;;;;5.10;4.80;;;27.90;91.60;;;28.31;45.16;98107.75;10301809;28;20258;-71
2023/09/07 13:06:02;;;;;;;5.22;4.82;;;27.80;91.40;;;28.62;46.08;98100.44;10301444;28;20424;-72
2023/09/07 13:11:06;;;;;;;5.80;5.30;;;28.00;91.90;;;28.43;45.69;98098.88;10315106;28;20287;-69
2023/09/07 13:16:09;;;;;;;5.47;5.07;;;28.00;91.80;;;28.54;44.57;98102.28;10324071;28;20262;-74
2023/09/07 13:21:14;;;;;;;5.95;5.35;;;28.00;91.10;;;28.61;44.63;98098.66;10321302;28;20274;-70
2023/09/07 13:26:17;;;;;;;5.55;5.00;;;28.00;91.20;;;28.37;45.74;98097.16;10323657;28;20714;-68
2023/09/07 13:31:20;;;;;;;5.32;4.82;;;27.80;91.50;;;28.34;45.63;98104.22;10317709;28;20354;-67
2023/09/07 13:36:25;;;;;;;5.60;5.20;;;27.80;91.40;;;28.49;45.37;98093.56;10303599;28;20234;-69
2023/09/07 13:41:28;;;;;;;5.80;5.30;;;27.80;91.60;;;28.20;44.64;98094.69;10304451;28;20718;-69
2023/09/07 13:46:31;;;;;;;5.18;4.78;;;27.70;90.80;;;28.13;45.55;98086.88;10302501;28;20233;-67
2023/09/07 13:51:38;;;;;;;5.75;4.90;;;27.70;91.20;;;28.50;44.91;98087.41;10301524;28;20274;-69
2023/09/07 13:56:42;;;;;;;5.32;4.93;;;27.90;91.30;;;28.30;43.35;98092.84;10307429;28;20238;-69
2023/09/07 14:01:45;;;;;;;5.20;4.75;;;27.80;90.30;;;28.12;44.39;98085.13;10324593;28;20280;-69
2023/09/07 14:06:50;;;;;;;5.25;4.85;;;27.60;90.60;;;27.99;44.20;98085.25;10302254;28;20231;-69
2023/09/07 14:11:53;;;;;;;4.68;4.38;;;27.50;90.30;;;28.09;43.52;98086.03;10306377;28;20444;-69
2023/09/07 14:16:58;;;;;;;4.75;4.35;;;27.60;90.00;;;28.07;42.86;98080.81;10305215;28;20238;-69
2023/09/07 14:22:03;;;;;;;5.03;4.63;;;27.60;88.90;;;28.13;42.98;98087.78;10302258;28;21007;-68
2023/09/07 14:27:06;;;;;;;5.20;4.80;;;27.60;88.80;;;28.21;42.52;98085.91;10305343;28;20404;-68
2023/09/07 14:32:09;;;;;;;5.60;4.95;;;27.60;88.90;;;28.30;42.28;98091.09;10302114;28;20773;-69
2023/09/07 14:37:14;;;;;;;5.25;4.75;;;27.60;87.70;;;28.21;41.52;98085.03;10301361;28;20270;-69
2023/09/07 14:42:19;;;;;;;5.10;4.60;;;27.70;85.90;;;28.25;40.84;98087.63;10301599;28;20245;-69
2023/09/07 14:47:25;;;;;;;5.00;4.60;;;27.70;86.00;;;28.29;41.29;98078.81;10299524;28;20552;-68
2023/09/07 14:52:31;;;;;;;4.78;4.38;;;27.70;85.50;;;28.25;41.79;98077.13;10301435;28;20313;-69
2023/09/07 14:57:34;;;;;;;4.72;4.32;;;27.70;86.60;;;28.33;41.73;98077.06;10300264;28;20223;-69
2023/09/07 15:02:37;;;;;;;4.82;4.43;;;27.60;87.10;;;28.53;40.45;98071.63;10304274;28;20582;-69
2023/09/07 15:07:42;;;;;;;5.45;4.97;;;28.00;84.50;;;28.47;41.16;98072.56;10296203;28;20230;-69
2023/09/07 15:12:46;;;;;;;5.63;5.07;;;27.80;85.60;;;28.38;40.13;98077.00;10299625;28;20226;-69
2023/09/07 15:17:49;;;;;;;4.95;4.53;;;27.70;84.60;;;28.42;40.86;98074.34;10298922;28;20229;-69
2023/09/07 15:22:54;;;;;;;4.70;4.22;;;27.80;85.30;;;28.54;40.43;98070.72;10292916;28;20734;-70
2023/09/07 15:27:57;;;;;;;5.43;4.95;;;27.70;84.70;;;28.49;38.30;98080.41;10294238;28;20219;-69
2023/09/07 15:33:00;;;;;;;5.07;4.68;;;27.90;81.20;;;28.35;39.53;98071.75;10301245;28;20370;-70
2023/09/07 15:38:05;;;;;;;5.22;4.82;;;27.70;82.40;;;28.45;39.07;98070.81;10293821;28;20226;-69
2023/09/07 15:43:08;;;;;;;5.57;5.10;;;27.80;81.80;;;28.51;38.30;98078.63;10294636;28;20357;-69
2023/09/07 15:48:12;;;;;;;5.18;4.78;;;27.80;81.60;;;28.16;38.53;98076.31;10289994;28;20317;-70
2023/09/07 15:53:17;;;;;;;5.05;4.65;;;27.60;81.30;;;28.11;38.95;98071.13;10295458;28;20235;-70
2023/09/07 15:58:21;;;;;;;5.43;4.95;;;27.50;81.30;;;28.06;38.89;98078.19;10290310;28;20233;-71
2023/09/07 16:03:24;;;;;;;5.07;4.68;;;27.40;81.40;;;28.11;38.52;98081.66;10295344;28;20534;-71
2023/09/07 16:08:29;;;;;;;5.20;4.80;;;27.50;80.70;;;28.00;38.36;98079.09;10292776;28;20229;-70
2023/09/07 16:13:33;;;;;;;4.88;4.47;;;27.30;81.30;;;28.24;37.91;98080.66;10296094;28;20285;-69
2023/09/07 16:18:38;;;;;;;8.55;6.00;;;27.50;80.10;;;28.06;37.39;98073.78;10291257;28;20242;-70
2023/09/07 16:23:43;;;;;;;5.32;4.93;;;27.40;78.90;;;27.84;37.63;98074.88;10290041;28;20244;-70
2023/09/07 16:28:47;;;;;;;4.90;4.50;;;27.30;79.40;;;27.80;37.77;98073.16;10293128;28;20233;-68
2023/09/07 16:33:52;;;;;;;5.18;4.68;;;27.10;79.70;;;27.84;38.61;98067.88;10294601;28;20230;-69
2023/09/07 16:38:57;;;;;;;5.18;4.78;;;27.10;80.80;;;27.78;38.65;98081.00;10319500;28;20277;-71
2023/09/07 16:44:00;;;;;;;5.05;4.55;;;27.10;80.60;;;27.55;39.07;98073.31;10324772;28;20231;-70
2023/09/07 16:49:04;;;;;;;5.00;4.60;;;26.90;81.20;;;27.48;39.16;98087.38;10321422;28;20301;-69
2023/09/07 16:54:08;;;;;;;5.13;4.72;;;26.80;81.40;;;27.30;40.11;98083.13;10305943;28;20241;-69
2023/09/07 16:59:11;;;;;;;4.78;4.30;;;26.60;82.50;;;27.30;40.92;98095.34;10304845;28;20668;-70
2023/09/07 17:04:25;;;;;;;4.93;4.18;;;26.40;84.40;;;27.11;41.95;98100.69;10306018;28;20231;-69
2023/09/07 17:09:30;;;;;;;5.30;4.80;;;26.20;86.00;;;26.92;42.88;98089.38;10301395;28;20270;-70
2023/09/07 17:14:34;;;;;;;4.78;4.45;;;26.00;87.80;;;26.62;43.91;98097.41;10306009;28;20325;-69
2023/09/07 17:19:37;;;;;;;5.80;5.20;;;25.60;88.60;;;26.29;43.67;98100.03;10317037;28;20238;-69
2023/09/07 17:24:42;;;;;;;5.97;4.88;;;25.30;88.40;;;26.11;44.26;98105.31;10315261;28;20264;-70
2023/09/07 17:29:45;;;;;;;4.53;4.13;;;25.10;89.10;;;25.89;45.62;98103.59;10318115;28;20222;-69
2023/09/07 17:34:48;;;;;;;5.78;5.15;;;24.90;90.80;;;25.59;47.63;98107.91;10294940;28;20602;-70
2023/09/07 17:39:55;;;;;;;5.40;4.90;;;24.50;92.40;;;25.25;49.47;98117.44;10308226;28;20243;-69
2023/09/07 17:45:00;;;;;;;5.90;5.32;;;24.00;93.90;;;24.89;50.93;98124.22;10314515;28;20753;-69
2023/09/07 17:50:04;;;;;;;6.32;5.72;;;23.80;95.50;;;24.59;52.83;98124.97;10309513;28;20356;-69
2023/09/07 17:55:09;;;;;;;6.68;5.53;;;23.40;96.70;;;24.28;53.32;98120.38;10297770;28;20231;-68
2023/09/07 18:00:14;;;;;;;5.63;5.05;;;23.20;96.80;;;24.03;53.86;98127.16;10297806;28;20518;-68
2023/09/07 18:05:21;;;;;;;6.00;5.40;;;22.90;97.40;;;23.77;54.69;98134.78;10305660;28;20248;-68
2023/09/07 18:10:25;;;;;;;5.65;5.25;;;22.60;97.60;;;23.44;56.88;98139.66;10305040;28;20308;-68
2023/09/07 18:15:29;;;;;;;5.82;5.30;;;22.30;99.20;;;23.22;58.52;98149.84;10300016;28;20237;-68
2023/09/07 18:20:32;;;;;;;5.60;5.13;;;22.00;99.90;;;22.96;59.53;98159.97;10299956;28;20722;-68
2023/09/07 18:25:38;;;;;;;6.30;5.22;;;21.70;99.90;;;22.66;61.16;98163.00;10298684;28;20854;-68
2023/09/07 18:30:42;;;;;;;6.00;5.40;;;21.50;99.90;;;22.40;62.19;98166.09;10297760;28;20809;-68
2023/09/07 18:35:45;;;;;;;5.53;5.03;;;21.20;99.90;;;22.29;62.43;98169.38;10296429;28;20253;-68
2023/09/07 18:40:50;;;;;;;6.57;5.47;;;21.10;99.90;;;22.02;63.17;98168.06;10298761;28;20561;-68
2023/09/07 18:45:53;;;;;;;5.82;4.43;;;20.90;99.90;;;21.80;64.51;98182.44;10298734;28;20511;-68
2023/09/07 18:51:01;;;;;;;6.68;6.10;;;20.70;99.90;;;21.65;67.72;98188.22;10299428;28;20238;-68
2023/09/07 18:56:08;;;;;;;6.78;6.15;;;20.50;99.90;;;21.48;69.97;98185.31;10297431;28;20239;-68
2023/09/07 19:01:17;;;;;;;6.72;5.85;;;20.40;99.90;;;21.39;70.74;98194.69;10295060;28;20231;-69
2023/09/07 19:06:22;;;;;;;6.70;6.00;;;20.30;99.90;;;21.17;71.19;98190.72;10284272;28;20317;-69
2023/09/07 19:11:27;;;;;;;6.78;6.03;;;20.10;99.90;;;20.99;71.48;98186.91;10296080;28;20231;-68
2023/09/07 19:16:31;;;;;;;6.32;5.82;;;19.90;99.90;;;20.84;70.47;98194.38;10300894;28;20231;-68
2023/09/07 19:21:34;;;;;;;6.68;5.45;;;19.80;99.90;;;20.73;69.73;98185.47;10311876;28;20278;-71
2023/09/07 19:26:41;;;;;;;5.70;5.20;;;19.70;99.90;;;20.68;69.32;98178.44;10307041;28;20233;-70
2023/09/07 19:31:44;;;;;;;5.63;5.22;;;19.60;99.90;;;20.54;69.84;98178.97;10307412;28;20227;-69
2023/09/07 19:36:48;;;;;;;6.22;5.60;;;19.50;99.90;;;20.47;70.79;98172.75;10299298;28;20214;-69
2023/09/07 19:41:52;;;;;;;6.28;5.78;;;19.50;99.90;;;20.32;71.73;98178.47;10293345;28;20250;-70
2023/09/07 19:46:56;;;;;;;6.00;5.50;;;19.30;99.90;;;20.14;73.13;98178.00;10299609;28;20714;-70
2023/09/07 19:52:01;;;;;;;6.72;6.13;;;19.10;99.90;;;20.00;73.87;98182.84;10295544;28;20231;-69
2023/09/07 19:57:06;;;;;;;7.03;6.43;;;19.00;99.90;;;19.84;75.49;98184.19;10309616;28;20247;-69
2023/09/07 20:02:09;;;;;;;6.82;6.22;;;18.80;99.90;;;19.62;76.78;98181.84;10305487;28;20621;-70
2023/09/07 20:07:13;;;;;;;7.55;6.15;;;18.60;99.90;;;19.49;77.48;98181.53;10294152;28;20247;-70
2023/09/07 20:12:17;;;;;;;6.68;5.88;;;18.50;99.90;;;19.46;77.57;98191.81;10303003;28;20235;-71
2023/09/07 20:17:21;;;;;;;6.60;6.00;;;18.40;99.90;;;19.18;78.85;98187.56;10299379;28;20781;-69
2023/09/07 20:22:27;;;;;;;7.40;6.70;;;18.20;99.90;;;19.08;79.24;98198.50;10303293;28;20281;-71
2023/09/07 20:27:32;;;;;;;6.38;5.78;;;18.10;99.90;;;19.01;79.18;98188.78;10308834;28;20234;-69
2023/09/07 20:32:35;;;;;;;6.97;6.22;;;18.00;99.90;;;19.01;79.37;98189.66;10307923;28;20799;-69
2023/09/07 20:37:38;;;;;;;7.55;6.90;;;18.00;99.90;;;18.84;80.22;98191.75;10306743;28;20226;-71
2023/09/07 20:42:43;;;;;;;7.00;6.43;;;17.90;99.90;;;18.77;79.96;98197.59;10306003;28;20227;-70
2023/09/07 20:47:46;;;;;;;7.50;6.70;;;17.80;99.90;;;18.72;80.23;98190.50;10308040;28;20227;-71
2023/09/07 20:52:50;;;;;;;7.25;6.55;;;17.70;99.90;;;18.68;80.21;98195.59;10306964;28;20239;-70
2023/09/07 20:57:54;;;;;;;6.50;5.90;;;17.70;99.90;;;18.59;81.42;98199.59;10305701;28;20372;-69
2023/09/07 21:02:59;;;;;;;6.43;5.85;;;17.60;99.90;;;18.51;82.08;98193.28;10306918;28;20738;-69
2023/09/07 21:08:04;;;;;;;6.43;5.93;;;17.50;99.90;;;18.41;82.38;98197.31;10307210;28;20358;-71